Time;durP1;ratioP1;P1;durP2;ratioP2;P2;SDS_P1;SDS_P2;PMS_P1;PMS_P2;Temp;Humidity;BMP_temperature;BMP_pressure;BME280_temperature;BME280_humidity;BME280_pressure;Samples;Min_cycle;Max_cycle;Signal;HPM_P1;HPM_P2
2022/05/28 00:00:07;;;;;;;4.05;2.45;;;;;;;14.02;81.77;96507.72;5091034;28;20097;-78
2022/05/28 00:02:34;;;;;;;3.90;2.58;;;;;;;14.11;81.13;96505.72;5091210;28;20042;-78
2022/05/28 00:05:00;;;;;;;4.70;3.00;;;;;;;14.15;80.96;96508.56;5090021;28;20539;-78
2022/05/28 00:07:27;;;;;;;4.63;2.30;;;;;;;14.20;80.92;96498.22;5088294;28;20044;-79
2022/05/28 00:09:53;;;;;;;3.60;2.28;;;;;;;14.20;80.30;96514.66;5090947;28;20167;-78
2022/05/28 00:12:25;;;;;;;4.00;2.50;;;;;;;14.23;80.21;96508.50;5090508;28;20051;-78
2022/05/28 00:14:51;;;;;;;4.75;2.70;;;;;;;14.19;80.56;96509.50;5090763;28;20047;-79
2022/05/28 00:17:17;;;;;;;3.40;2.42;;;;;;;14.18;80.62;96503.22;5090419;28;20055;-79
2022/05/28 00:19:44;;;;;;;3.72;2.40;;;;;;;14.21;80.59;96501.75;5090937;28;20044;-78
2022/05/28 00:22:10;;;;;;;3.22;2.20;;;;;;;14.10;80.74;96498.66;5090334;28;20040;-80
2022/05/28 00:24:37;;;;;;;4.45;2.45;;;;;;;14.10;81.04;96501.38;5090928;28;20048;-78
2022/05/28 00:27:04;;;;;;;2.83;2.45;;;;;;;14.11;81.19;96494.75;5090145;28;20040;-78
2022/05/28 00:29:32;;;;;;;3.05;2.20;;;;;;;14.02;80.61;96496.78;5090917;28;20047;-79
2022/05/28 00:31:58;;;;;;;5.55;2.13;;;;;;;13.99;80.76;96494.69;5090621;28;20043;-77
2022/05/28 00:34:25;;;;;;;7.22;2.75;;;;;;;14.05;81.03;96496.13;5090188;28;20408;-79
2022/05/28 00:36:52;;;;;;;4.55;2.15;;;;;;;14.12;80.62;96490.88;5090645;28;20047;-78
2022/05/28 00:39:18;;;;;;;4.30;2.33;;;;;;;14.18;80.82;96489.53;5087273;28;20052;-78
2022/05/28 00:41:45;;;;;;;3.33;2.55;;;;;;;14.22;80.42;96487.72;5090323;28;20036;-79
2022/05/28 00:44:12;;;;;;;3.20;2.40;;;;;;;14.24;80.19;96493.66;5089934;28;20044;-79
2022/05/28 00:46:43;;;;;;;4.10;2.38;;;;;;;14.25;80.39;96481.59;5090542;28;20499;-78
2022/05/28 00:49:14;;;;;;;3.30;2.20;;;;;;;14.20;79.66;96481.78;5089836;28;20044;-78
2022/05/28 00:51:43;;;;;;;2.90;2.13;;;;;;;14.16;79.04;96483.59;5090530;28;20036;-79
2022/05/28 00:54:11;;;;;;;3.10;2.53;;;;;;;14.01;80.48;96485.03;5089632;28;20044;-80
2022/05/28 00:56:38;;;;;;;3.60;2.33;;;;;;;14.04;79.66;96486.28;5090255;28;20048;-79
2022/05/28 00:59:05;;;;;;;4.90;2.80;;;;;;;14.10;79.70;96487.69;5089773;28;20055;-78
2022/05/28 01:01:35;;;;;;;4.07;2.08;;;;;;;14.14;79.79;96488.59;5090354;28;20051;-78
2022/05/28 01:04:15;;;;;;;3.92;2.30;;;;;;;14.19;79.19;96493.06;5089729;28;20055;-78
2022/05/28 01:06:47;;;;;;;3.10;2.35;;;;;;;14.20;78.90;96491.91;5090361;28;20036;-78
2022/05/28 01:09:22;;;;;;;4.38;2.63;;;;;;;14.03;79.03;96487.41;5086972;28;20047;-79
2022/05/28 01:11:58;;;;;;;4.07;2.72;;;;;;;14.03;79.44;96487.41;5090011;28;20048;-78
2022/05/28 01:14:32;;;;;;;6.50;2.45;;;;;;;14.05;79.99;96490.66;5089583;28;20406;-78
2022/05/28 01:17:05;;;;;;;4.45;2.70;;;;;;;14.10;79.50;96487.69;5090252;28;20052;-78
2022/05/28 01:19:44;;;;;;;5.18;2.47;;;;;;;14.06;79.74;96481.28;5089700;28;20044;-77
2022/05/28 01:22:19;;;;;;;3.80;2.33;;;;;;;14.09;78.83;96486.06;5089074;28;20052;-77
2022/05/28 01:24:55;;;;;;;8.43;2.70;;;;;;;14.00;78.84;96482.63;5090116;28;20036;-78
2022/05/28 01:27:26;;;;;;;5.50;2.92;;;;;;;13.94;78.95;96478.47;5089334;28;20048;-79
2022/05/28 01:29:57;;;;;;;4.60;2.47;;;;;;;13.99;78.84;96476.38;5089952;28;20376;-78
2022/05/28 01:32:26;;;;;;;3.60;2.90;;;;;;;14.02;78.53;96480.34;5089618;28;20574;-78
2022/05/28 01:34:55;;;;;;;5.78;2.90;;;;;;;13.94;78.53;96478.47;5090150;28;20040;-80
2022/05/28 01:37:22;;;;;;;4.13;3.00;;;;;;;13.94;78.97;96473.00;5086608;28;20823;-80
2022/05/28 01:39:51;;;;;;;3.45;2.40;;;;;;;13.89;78.77;96473.25;5089606;28;20060;-78
2022/05/28 01:42:19;;;;;;;5.15;2.60;;;;;;;13.88;79.12;96474.34;5089065;28;20044;-77
2022/05/28 01:44:50;;;;;;;4.50;2.88;;;;;;;13.91;79.24;96474.50;5089496;28;20068;-80
2022/05/28 01:47:18;;;;;;;5.03;2.88;;;;;;;13.88;79.59;96474.34;5089211;28;20044;-79
2022/05/28 01:49:46;;;;;;;5.20;2.97;;;;;;;13.78;79.50;96475.56;5089771;28;20043;-79
2022/05/28 01:52:16;;;;;;;4.75;2.60;;;;;;;13.77;80.00;96474.78;5089536;28;20055;-80
2022/05/28 01:54:46;;;;;;;6.45;2.80;;;;;;;13.86;79.57;96468.44;5089756;28;20051;-79
2022/05/28 01:57:14;;;;;;;4.57;2.90;;;;;;;13.92;79.15;96464.34;5089340;28;20411;-80
2022/05/28 01:59:41;;;;;;;3.45;2.67;;;;;;;13.98;79.31;96460.25;5089523;28;20040;-79
2022/05/28 02:02:12;;;;;;;3.88;2.60;;;;;;;13.98;78.76;96463.78;5088838;28;20051;-81
2022/05/28 02:04:41;;;;;;;5.35;3.15;;;;;;;14.00;78.35;96467.00;5089545;28;20052;-79
2022/05/28 02:07:08;;;;;;;5.68;2.85;;;;;;;14.00;78.61;96472.47;5084075;28;20040;-79
2022/05/28 02:09:37;;;;;;;5.05;2.70;;;;;;;14.01;78.34;96473.28;5089719;28;20613;-80
2022/05/28 02:12:13;;;;;;;7.00;2.88;;;;;;;14.03;78.51;96460.03;5083738;28;20052;-79
2022/05/28 02:14:52;;;;;;;7.30;2.80;;;;;;;14.03;78.33;96471.78;5089747;28;20044;-80
2022/05/28 02:17:23;;;;;;;3.60;2.80;;;;;;;14.02;78.39;96467.47;5089172;28;20044;-80
2022/05/28 02:19:58;;;;;;;5.55;3.25;;;;;;;13.99;78.48;96467.31;5089619;28;20048;-79
2022/05/28 02:22:32;;;;;;;5.85;2.83;;;;;;;14.01;79.16;96465.88;5088991;28;20648;-80
2022/05/28 02:25:05;;;;;;;6.50;3.10;;;;;;;14.01;79.35;96456.84;5089177;28;20044;-81
2022/05/28 02:27:32;;;;;;;5.22;3.17;;;;;;;13.94;79.79;96468.38;5090742;28;20036;-80
2022/05/28 02:30:01;;;;;;;5.32;3.00;;;;;;;13.73;80.20;96457.44;5093020;28;20139;-79
2022/05/28 02:32:29;;;;;;;4.00;2.88;;;;;;;13.70;80.39;96469.03;5092830;28;20089;-79
2022/05/28 02:34:55;;;;;;;6.65;3.25;;;;;;;13.62;80.47;96467.16;5092995;28;20126;-80
2022/05/28 02:37:25;;;;;;;5.63;2.95;;;;;;;13.37;80.24;96465.47;5092176;28;20059;-80
2022/05/28 02:39:51;;;;;;;7.55;3.42;;;;;;;13.34;80.81;96469.66;5092801;28;20062;-79
2022/05/28 02:42:18;;;;;;;4.85;3.20;;;;;;;13.37;81.17;96460.00;5088773;28;20044;-80
2022/05/28 02:44:44;;;;;;;5.10;3.25;;;;;;;13.32;81.09;96452.78;5092808;28;20039;-81
2022/05/28 02:47:11;;;;;;;7.88;3.78;;;;;;;13.39;80.83;96452.25;5092201;28;20055;-80
2022/05/28 02:49:39;;;;;;;5.88;3.38;;;;;;;13.47;80.55;96460.41;5092756;28;20040;-78
2022/05/28 02:52:07;;;;;;;5.72;3.33;;;;;;;13.40;77.46;96464.78;5091959;28;20059;-80
2022/05/28 02:54:34;;;;;;;6.43;3.40;;;;;;;13.21;78.64;96463.31;5092866;28;20067;-79
2022/05/28 02:57:01;;;;;;;8.70;3.30;;;;;;;13.22;77.56;96461.38;5092243;28;20040;-79
2022/05/28 02:59:27;;;;;;;5.47;2.50;;;;;;;13.18;73.21;96453.00;5092344;28;20047;-80
2022/05/28 03:01:54;;;;;;;8.63;3.47;;;;;;;13.19;71.36;96457.31;5092309;28;20048;-80
2022/05/28 03:04:21;;;;;;;5.60;2.70;;;;;;;13.24;70.62;96456.38;5091888;28;20044;-80
2022/05/28 03:06:49;;;;;;;6.38;2.70;;;;;;;13.30;70.62;96455.84;5092485;28;20506;-79
2022/05/28 03:09:17;;;;;;;6.38;2.90;;;;;;;13.36;70.87;96456.44;5091636;28;20396;-81
2022/05/28 03:11:43;;;;;;;9.32;2.70;;;;;;;13.43;71.00;96456.72;5090232;28;20044;-80
2022/05/28 03:14:10;;;;;;;7.88;3.38;;;;;;;13.45;69.40;96459.91;5090908;28;20044;-80
2022/05/28 03:16:37;;;;;;;10.85;3.05;;;;;;;13.43;68.55;96453.19;5092274;28;20052;-81
2022/05/28 03:19:03;;;;;;;4.40;2.78;;;;;;;13.53;68.17;96469.19;5091768;28;20056;-79
2022/05/28 03:21:31;;;;;;;3.83;2.42;;;;;;;13.56;67.94;96457.56;5092160;28;20048;-79
2022/05/28 03:24:00;;;;;;;6.88;3.10;;;;;;;13.50;68.16;96456.97;5091991;28;20055;-80
2022/05/28 03:26:29;;;;;;;10.05;2.90;;;;;;;13.53;68.89;96447.31;5091366;28;20036;-81
2022/05/28 03:28:57;;;;;;;5.63;2.53;;;;;;;13.57;69.69;96448.22;5091886;28;20426;-78
2022/05/28 03:31:25;;;;;;;6.85;2.78;;;;;;;13.49;68.87;96446.38;5091536;28;20048;-79
2022/05/28 03:33:52;;;;;;;8.07;3.17;;;;;;;13.34;68.54;96453.25;5091823;28;20040;-78
2022/05/28 03:36:19;;;;;;;10.32;3.30;;;;;;;13.14;69.00;96463.00;5091155;28;20514;-81
2022/05/28 03:38:45;;;;;;;9.55;3.17;;;;;;;12.88;68.91;96454.16;5091736;28;20052;-79
2022/05/28 03:41:14;;;;;;;9.90;3.88;;;;;;;12.71;68.49;96461.31;5091223;28;20040;-78
2022/05/28 03:43:40;;;;;;;5.90;2.67;;;;;;;12.57;68.75;96465.38;5090832;28;20051;-80
2022/05/28 03:46:19;;;;;;;6.20;2.70;;;;;;;12.48;69.93;96460.78;5091070;28;20048;-80
2022/05/28 03:48:46;;;;;;;7.03;2.65;;;;;;;12.51;70.97;96467.50;5091457;28;20044;-79
2022/05/28 03:51:12;;;;;;;11.20;3.67;;;;;;;12.44;71.13;96478.13;5091210;28;20055;-80
2022/05/28 03:53:39;;;;;;;6.40;3.00;;;;;;;12.38;70.85;96482.19;5091541;28;20044;-80
2022/05/28 03:56:05;;;;;;;8.25;3.08;;;;;;;12.40;70.84;96493.56;5091038;28;20521;-79
2022/05/28 03:58:33;;;;;;;14.52;3.40;;;;;;;12.45;69.50;96485.19;5091313;28;20059;-78
2022/05/28 04:01:00;;;;;;;8.50;2.80;;;;;;;12.46;69.67;96484.06;5091553;28;20055;-79
2022/05/28 04:03:26;;;;;;;4.65;2.53;;;;;;;12.39;68.23;96486.50;5090920;28;20507;-78
2022/05/28 04:05:53;;;;;;;11.35;2.90;;;;;;;12.36;67.00;96487.94;5091203;28;20411;-78
2022/05/28 04:08:19;;;;;;;7.32;2.45;;;;;;;12.34;66.50;96489.41;5090637;28;20051;-78
2022/05/28 04:10:46;;;;;;;4.00;2.20;;;;;;;12.26;65.32;96493.75;5091289;28;20050;-78
2022/05/28 04:13:12;;;;;;;7.82;2.63;;;;;;;12.16;63.98;96494.94;5087468;28;20102;-79
2022/05/28 04:15:40;;;;;;;7.45;2.45;;;;;;;12.06;63.17;96506.19;5090995;28;20067;-77
2022/05/28 04:18:07;;;;;;;4.43;2.35;;;;;;;12.02;63.19;96503.28;5090408;28;20075;-79
2022/05/28 04:20:34;;;;;;;8.55;2.35;;;;;;;12.02;62.48;96511.47;5090900;28;20499;-78
2022/05/28 04:23:01;;;;;;;7.93;2.42;;;;;;;11.94;62.29;96520.47;5090787;28;20119;-78
2022/05/28 04:25:27;;;;;;;7.05;2.13;;;;;;;11.91;63.58;96514.88;5090589;28;20043;-78
2022/05/28 04:27:54;;;;;;;8.30;2.05;;;;;;;11.89;61.19;96511.66;5090668;28;20546;-78
2022/05/28 04:30:20;;;;;;;7.35;2.00;;;;;;;11.82;62.44;96516.78;5090211;28;20047;-78
2022/05/28 04:32:48;;;;;;;3.65;1.90;;;;;;;11.84;62.80;96506.34;5090722;28;20047;-78
2022/05/28 04:35:16;;;;;;;8.63;2.00;;;;;;;11.99;62.43;96506.66;5090009;28;20126;-78
2022/05/28 04:37:42;;;;;;;5.80;1.92;;;;;;;11.93;62.05;96512.59;5090645;28;20514;-78
2022/05/28 04:40:10;;;;;;;6.13;1.90;;;;;;;11.74;62.18;96510.16;5089882;28;20579;-79
2022/05/28 04:42:37;;;;;;;9.40;2.58;;;;;;;11.61;62.23;96514.69;5087279;28;20685;-78
2022/05/28 04:45:03;;;;;;;7.22;2.28;;;;;;;11.57;62.27;96513.72;5089909;28;20048;-78
2022/05/28 04:47:30;;;;;;;7.28;1.88;;;;;;;11.49;62.93;96514.53;5090309;28;20406;-78
2022/05/28 04:49:58;;;;;;;8.85;2.00;;;;;;;11.56;63.53;96509.38;5089704;28;20511;-78
2022/05/28 04:52:25;;;;;;;6.95;2.00;;;;;;;11.61;64.37;96517.41;5090002;28;20036;-78
2022/05/28 04:54:51;;;;;;;6.13;2.10;;;;;;;11.72;65.38;96526.88;5090318;28;20050;-78
2022/05/28 04:57:18;;;;;;;7.07;2.20;;;;;;;11.77;65.07;96520.44;5089781;28;20044;-78
2022/05/28 04:59:44;;;;;;;7.35;2.30;;;;;;;11.68;65.83;96522.38;5090280;28;20044;-79
2022/05/28 05:02:11;;;;;;;5.00;2.22;;;;;;;11.81;65.41;96526.88;5089512;28;20044;-79
2022/05/28 05:04:37;;;;;;;5.55;2.22;;;;;;;11.59;66.92;96524.28;5090176;28;20060;-78
2022/05/28 05:07:05;;;;;;;6.22;2.30;;;;;;;11.47;68.50;96523.00;5089726;28;20631;-79
2022/05/28 05:09:32;;;;;;;7.68;2.70;;;;;;;11.49;69.59;96530.88;5090236;28;20048;-78
2022/05/28 05:11:58;;;;;;;7.45;3.00;;;;;;;11.29;71.98;96515.13;5087273;28;20053;-79
2022/05/28 05:14:25;;;;;;;10.15;3.28;;;;;;;11.38;72.43;96507.75;5089854;28;20490;-79
2022/05/28 05:16:51;;;;;;;11.95;3.33;;;;;;;11.48;72.98;96512.88;5090063;28;20044;-80
2022/05/28 05:19:18;;;;;;;7.50;3.40;;;;;;;11.58;73.31;96512.56;5089465;28;20044;-79
2022/05/28 05:21:45;;;;;;;8.15;3.47;;;;;;;11.65;73.16;96512.91;5090030;28;20059;-79
2022/05/28 05:24:13;;;;;;;10.15;3.20;;;;;;;11.49;73.37;96514.53;5089761;28;20431;-79
2022/05/28 05:26:39;;;;;;;6.95;2.80;;;;;;;11.41;73.67;96518.03;5089873;28;20527;-80
2022/05/28 05:29:06;;;;;;;9.20;3.45;;;;;;;11.54;73.62;96517.09;5089659;28;20415;-79
2022/05/28 05:31:32;;;;;;;9.48;3.50;;;;;;;11.60;73.06;96520.47;5090068;28;20047;-79
2022/05/28 05:33:58;;;;;;;11.98;3.47;;;;;;;11.72;71.84;96518.69;5090047;28;20044;-79
2022/05/28 05:36:25;;;;;;;11.77;3.33;;;;;;;11.82;72.07;96522.25;5089390;28;20055;-79
2022/05/28 05:38:51;;;;;;;6.90;3.38;;;;;;;11.83;71.31;96524.66;5090020;28;20044;-79
2022/05/28 05:41:19;;;;;;;7.70;2.90;;;;;;;11.84;71.08;96526.25;5089458;28;20047;-79
2022/05/28 05:43:45;;;;;;;6.28;2.60;;;;;;;11.90;70.98;96518.69;5086645;28;20040;-79
2022/05/28 05:46:13;;;;;;;6.15;2.40;;;;;;;11.85;68.79;96524.31;5089586;28;20044;-78
2022/05/28 05:48:40;;;;;;;9.52;2.70;;;;;;;11.85;69.12;96532.50;5089882;28;20071;-79
2022/05/28 05:51:08;;;;;;;9.05;2.58;;;;;;;11.77;69.05;96528.63;5089447;28;20052;-78
2022/05/28 05:53:35;;;;;;;12.35;2.78;;;;;;;11.77;69.54;96523.19;5090143;28;20043;-79
2022/05/28 05:56:01;;;;;;;9.88;3.00;;;;;;;11.75;70.28;96523.50;5089296;28;20048;-76
2022/05/28 05:58:29;;;;;;;8.95;2.88;;;;;;;11.75;69.99;96522.72;5089564;28;20048;-78
2022/05/28 06:00:56;;;;;;;9.40;2.85;;;;;;;11.74;70.67;96521.91;5089940;28;20044;-79
2022/05/28 06:03:23;;;;;;;7.22;3.03;;;;;;;11.60;71.32;96524.00;5092104;28;20039;-79
2022/05/28 06:05:49;;;;;;;8.25;2.83;;;;;;;11.61;72.47;96517.41;5093775;28;20036;-78
2022/05/28 06:08:16;;;;;;;7.20;2.97;;;;;;;11.53;72.04;96515.47;5092961;28;20063;-80
2022/05/28 06:10:45;;;;;;;9.93;3.00;;;;;;;11.48;73.76;96518.34;5093680;28;20047;-80
2022/05/28 06:13:11;;;;;;;8.23;2.92;;;;;;;11.45;74.34;96519.78;5091002;28;20044;-80
2022/05/28 06:15:39;;;;;;;7.55;3.17;;;;;;;11.46;73.26;96509.69;5093221;28;20051;-79
2022/05/28 06:18:06;;;;;;;8.43;2.85;;;;;;;11.51;73.96;96517.72;5093066;28;20507;-79
2022/05/28 06:20:34;;;;;;;12.05;3.40;;;;;;;11.70;74.71;96514.69;5093531;28;20054;-78
2022/05/28 06:23:01;;;;;;;11.98;2.92;;;;;;;11.68;73.33;96506.00;5093250;28;20040;-79
2022/05/28 06:25:28;;;;;;;11.43;3.35;;;;;;;11.70;73.80;96509.22;5093159;28;20040;-78
2022/05/28 06:27:54;;;;;;;9.82;3.17;;;;;;;11.63;72.37;96515.16;5093111;28;20051;-77
2022/05/28 06:30:22;;;;;;;9.02;3.25;;;;;;;11.74;73.18;96508.28;5092717;28;20044;-79
2022/05/28 06:32:50;;;;;;;12.27;3.40;;;;;;;11.85;73.18;96516.13;5093511;28;20051;-79
2022/05/28 06:35:17;;;;;;;10.52;3.33;;;;;;;11.87;71.52;96511.97;5092402;28;20051;-78
2022/05/28 06:37:43;;;;;;;13.95;3.30;;;;;;;11.86;71.11;96512.31;5093316;28;20044;-79
2022/05/28 06:40:10;;;;;;;8.88;2.58;;;;;;;11.90;70.23;96518.69;5092508;28;20380;-79
2022/05/28 06:42:38;;;;;;;15.98;2.78;;;;;;;11.99;69.39;96522.22;5092594;28;20051;-79
2022/05/28 06:45:05;;;;;;;10.60;3.40;;;;;;;12.14;69.58;96518.19;5092490;28;20497;-80
2022/05/28 06:47:32;;;;;;;7.60;2.38;;;;;;;12.20;67.96;96517.69;5093015;28;20040;-79
2022/05/28 06:52:44;;;;;;;11.32;2.95;;;;;;;12.34;64.50;96512.06;5092762;28;20055;-79
2022/05/28 06:55:10;;;;;;;9.63;2.40;;;;;;;12.31;64.37;96511.91;5092147;28;20052;-79
2022/05/28 06:57:36;;;;;;;13.88;2.85;;;;;;;12.38;62.73;96506.75;5092655;28;20412;-78
2022/05/28 07:00:04;;;;;;;5.97;2.00;;;;;;;12.43;61.76;96510.13;5092136;28;20074;-78
2022/05/28 07:02:31;;;;;;;10.95;2.38;;;;;;;12.42;60.59;96513.94;5093071;28;20051;-78
2022/05/28 07:04:57;;;;;;;6.82;2.03;;;;;;;12.28;60.30;96511.44;5092598;28;20048;-78
2022/05/28 07:07:25;;;;;;;10.52;2.58;;;;;;;12.24;60.03;96518.66;5091961;28;20044;-78
2022/05/28 07:09:51;;;;;;;8.07;2.45;;;;;;;12.19;59.17;96516.09;5092337;28;20056;-78
2022/05/28 07:12:18;;;;;;;8.10;2.40;;;;;;;12.27;61.96;96522.69;5091210;28;20578;-78
2022/05/28 07:14:44;;;;;;;9.60;2.40;;;;;;;12.42;60.66;96521.34;5091966;28;20040;-78
2022/05/28 07:17:11;;;;;;;13.73;2.35;;;;;;;12.24;58.00;96515.94;5091660;28;20040;-79
2022/05/28 07:19:37;;;;;;;16.02;2.95;;;;;;;12.27;60.44;96518.03;5092163;28;20051;-78
2022/05/28 07:22:04;;;;;;;12.27;2.38;;;;;;;12.41;58.85;96511.56;5091636;28;20544;-78
2022/05/28 07:24:32;;;;;;;7.85;2.00;;;;;;;12.38;57.32;96506.75;5092153;28;20036;-78
2022/05/28 07:26:58;;;;;;;7.75;2.17;;;;;;;12.39;58.36;96516.56;5091889;28;20055;-79
2022/05/28 07:29:25;;;;;;;10.90;2.00;;;;;;;12.44;57.68;96505.44;5091533;28;20044;-78
2022/05/28 07:31:51;;;;;;;7.65;2.17;;;;;;;12.49;58.29;96502.53;5091875;28;20044;-78
2022/05/28 07:34:18;;;;;;;9.70;1.92;;;;;;;12.62;57.34;96496.06;5091281;28;20055;-78
2022/05/28 07:36:44;;;;;;;6.65;2.17;;;;;;;12.62;56.77;96501.53;5092001;28;20130;-78
2022/05/28 07:39:11;;;;;;;10.25;2.35;;;;;;;12.82;59.57;96510.13;5091445;28;20071;-79
2022/05/28 07:41:39;;;;;;;10.32;2.17;;;;;;;13.07;59.34;96506.47;5091662;28;20044;-79
2022/05/28 07:44:06;;;;;;;11.68;2.20;;;;;;;13.19;57.55;96503.81;5090922;28;20036;-79
2022/05/28 07:46:33;;;;;;;14.82;2.83;;;;;;;13.32;59.03;96499.28;5091795;28;20040;-79
2022/05/28 07:49:02;;;;;;;11.82;2.10;;;;;;;13.35;57.58;96512.28;5091522;28;20051;-78
2022/05/28 07:51:28;;;;;;;8.93;1.90;;;;;;;13.43;54.50;96502.41;5091264;28;20040;-79
2022/05/28 07:53:55;;;;;;;9.52;2.58;;;;;;;13.44;53.54;96498.53;5091318;28;20059;-80
2022/05/28 07:56:21;;;;;;;7.38;1.92;;;;;;;13.35;51.97;96506.00;5090919;28;20125;-78
2022/05/28 07:58:50;;;;;;;8.57;1.92;;;;;;;13.42;52.93;96506.28;5091359;28;20068;-79
2022/05/28 08:01:21;;;;;;;4.85;1.83;;;;;;;13.62;53.30;96502.75;5090780;28;20131;-80
2022/05/28 08:03:48;;;;;;;9.70;1.80;;;;;;;13.67;51.01;96499.81;5091199;28;20040;-79
2022/05/28 08:06:14;;;;;;;9.38;2.00;;;;;;;13.87;52.65;96494.66;5090768;28;20063;-79
2022/05/28 08:08:41;;;;;;;9.20;2.13;;;;;;;14.36;52.23;96509.34;5091278;28;20076;-79
2022/05/28 08:11:08;;;;;;;9.50;2.00;;;;;;;14.67;50.25;96499.81;5090663;28;20094;-79
2022/05/28 08:13:36;;;;;;;8.20;2.05;;;;;;;15.48;50.67;96498.09;5090870;28;20063;-79
2022/05/28 08:16:05;;;;;;;11.15;1.98;;;;;;;15.23;47.58;96495.38;5090557;28;20052;-79
2022/05/28 08:18:31;;;;;;;11.52;1.60;;;;;;;15.01;49.02;96509.56;5091036;28;20040;-79
2022/05/28 08:23:44;;;;;;;11.05;2.22;;;;;;;15.62;55.47;96496.59;5091065;28;20100;-80
2022/05/28 08:26:13;;;;;;;5.20;1.48;;;;;;;15.87;43.90;96508.34;5089477;28;20067;-78
2022/05/28 08:28:41;;;;;;;7.75;1.73;;;;;;;16.05;47.13;96506.09;5090768;28;20050;-79
2022/05/28 08:31:10;;;;;;;11.90;1.73;;;;;;;15.86;48.91;96514.16;5090215;28;20586;-79
2022/05/28 08:33:37;;;;;;;6.97;1.58;;;;;;;15.91;44.49;96511.97;5090894;28;20055;-80
2022/05/28 08:36:04;;;;;;;10.60;1.60;;;;;;;16.06;47.28;96515.13;5090350;28;20406;-79
2022/05/28 08:38:31;;;;;;;6.00;1.48;;;;;;;16.25;44.21;96515.28;5090909;28;20051;-80
2022/05/28 08:41:01;;;;;;;8.20;1.60;;;;;;;15.62;43.02;96506.78;5090713;28;20047;-79
2022/05/28 08:43:30;;;;;;;4.95;1.42;;;;;;;14.98;46.48;96516.56;5089701;28;20036;-79
2022/05/28 08:45:58;;;;;;;9.23;1.63;;;;;;;14.96;47.27;96516.06;5090575;28;20072;-79
2022/05/28 08:48:34;;;;;;;7.45;1.40;;;;;;;15.18;45.92;96520.31;5089993;28;20044;-80
2022/05/28 08:51:05;;;;;;;4.75;1.40;;;;;;;15.48;46.19;96509.06;5090540;28;20068;-79
2022/05/28 08:53:38;;;;;;;5.93;1.08;;;;;;;15.86;49.13;96520.44;5090217;28;20456;-78
2022/05/28 08:56:06;;;;;;;4.75;1.25;;;;;;;16.10;47.23;96522.31;5089785;28;20411;-78
2022/05/28 08:58:35;;;;;;;5.55;1.33;;;;;;;16.21;44.94;96525.38;5090403;28;20044;-79
2022/05/28 09:01:07;;;;;;;8.50;1.88;;;;;;;16.18;48.65;96528.81;5090336;28;20044;-78
2022/05/28 09:03:45;;;;;;;5.78;1.77;;;;;;;16.33;50.85;96519.81;5090389;28;20040;-79
2022/05/28 09:06:13;;;;;;;7.55;1.65;;;;;;;16.74;48.30;96517.78;5089916;28;20059;-79
2022/05/28 09:08:43;;;;;;;6.80;1.38;;;;;;;16.82;45.52;96530.56;5089989;28;20074;-78
2022/05/28 09:11:14;;;;;;;7.70;1.58;;;;;;;16.77;43.56;96522.56;5089829;28;20040;-79
2022/05/28 09:13:44;;;;;;;6.15;1.40;;;;;;;16.61;43.65;96519.00;5089908;28;20043;-78
2022/05/28 09:16:20;;;;;;;5.40;1.35;;;;;;;16.40;44.31;96514.53;5089839;28;20422;-80
2022/05/28 09:18:49;;;;;;;5.88;1.63;;;;;;;16.64;43.73;96515.50;5090353;28;20060;-77
2022/05/28 09:21:17;;;;;;;7.35;1.40;;;;;;;16.83;40.99;96523.91;5089700;28;20040;-78
2022/05/28 09:23:47;;;;;;;7.90;1.60;;;;;;;16.68;44.52;96516.41;5090112;28;20043;-80
2022/05/28 09:26:16;;;;;;;5.72;1.08;;;;;;;16.59;42.36;96515.78;5089582;28;20040;-79
2022/05/28 09:28:54;;;;;;;4.45;1.30;;;;;;;16.43;42.00;96524.00;5090296;28;20040;-78
2022/05/28 09:31:35;;;;;;;5.60;1.20;;;;;;;16.35;41.71;96519.47;5089629;28;20044;-79
2022/05/28 09:34:27;;;;;;;2.85;1.00;;;;;;;16.27;43.46;96504.72;5089555;28;20043;-79
2022/05/28 09:37:01;;;;;;;5.47;1.15;;;;;;;16.38;40.51;96516.00;5092466;28;20491;-79
2022/05/28 09:39:45;;;;;;;4.93;1.10;;;;;;;16.18;42.59;96517.81;5093859;28;20039;-78
2022/05/28 09:42:23;;;;;;;8.10;1.45;;;;;;;16.27;42.31;96515.72;5093329;28;20051;-78
2022/05/28 09:45:07;;;;;;;5.70;1.13;;;;;;;16.17;43.86;96516.22;5094036;28;20047;-80
2022/05/28 09:47:46;;;;;;;6.05;1.92;;;;;;;16.03;44.60;96510.34;5094031;28;20046;-79
2022/05/28 09:50:21;;;;;;;4.38;1.10;;;;;;;15.68;44.21;96504.63;5093626;28;20238;-79
2022/05/28 09:55:52;;;;;;;4.13;0.95;;;;;;;16.29;43.49;96513.44;5093813;28;20051;-81
2022/05/28 09:58:22;;;;;;;4.22;1.02;;;;;;;16.25;45.63;96509.78;5093083;28;20062;-81
2022/05/28 10:00:50;;;;;;;3.83;1.20;;;;;;;16.44;46.79;96507.19;5093713;28;20040;-81
2022/05/28 10:06:14;;;;;;;7.65;1.20;;;;;;;16.78;42.43;96507.66;5093474;28;20051;-79
2022/05/28 10:08:41;;;;;;;6.63;1.33;;;;;;;16.53;45.06;96500.69;5093519;28;20066;-78
2022/05/28 10:11:07;;;;;;;5.57;1.25;;;;;;;16.46;45.72;96500.53;5093166;28;20125;-78
2022/05/28 10:13:43;;;;;;;5.68;1.33;;;;;;;16.49;45.42;96502.53;5093012;28;20055;-78
2022/05/28 10:16:10;;;;;;;5.82;1.10;;;;;;;16.76;46.59;96493.50;5093158;28;20044;-78
2022/05/28 10:18:40;;;;;;;7.10;1.98;;;;;;;16.76;43.99;96510.00;5093441;28;20078;-79
2022/05/28 10:21:10;;;;;;;5.72;1.35;;;;;;;16.79;43.26;96508.47;5093024;28;20058;-79
2022/05/28 10:23:40;;;;;;;5.85;1.10;;;;;;;16.83;44.46;96496.41;5093647;28;20059;-78
2022/05/28 10:26:15;;;;;;;4.38;1.10;;;;;;;17.13;46.22;96491.25;5092848;28;20514;-79
2022/05/28 10:28:47;;;;;;;1.90;0.95;;;;;;;17.16;45.49;96489.72;5093268;28;20048;-79
2022/05/28 10:31:16;;;;;;;4.82;1.27;;;;;;;17.27;39.20;96490.75;5092850;28;20044;-79
2022/05/28 10:33:44;;;;;;;3.83;0.80;;;;;;;16.95;41.02;96490.81;5092894;28;20044;-79
2022/05/28 10:36:17;;;;;;;4.28;1.10;;;;;;;17.31;43.50;96486.16;5092648;28;20040;-78
2022/05/28 10:38:46;;;;;;;5.78;1.00;;;;;;;17.43;41.90;96480.50;5093006;28;20524;-79
2022/05/28 10:41:20;;;;;;;5.80;1.15;;;;;;;17.45;44.25;96480.97;5092186;28;20050;-79
2022/05/28 10:43:48;;;;;;;2.90;1.00;;;;;;;17.33;42.47;96489.38;5092677;28;20528;-79
2022/05/28 10:46:21;;;;;;;4.32;1.10;;;;;;;17.46;44.90;96482.56;5092389;28;20550;-78
2022/05/28 10:49:03;;;;;;;3.92;1.42;;;;;;;17.76;42.04;96484.81;5092128;28;20040;-79
2022/05/28 10:51:45;;;;;;;3.00;0.88;;;;;;;18.06;41.40;96489.75;5092683;28;20044;-80
2022/05/28 10:54:41;;;;;;;3.37;1.00;;;;;;;18.11;42.76;96483.94;5092424;28;20051;-79
2022/05/28 10:57:28;;;;;;;3.53;0.93;;;;;;;17.92;41.76;96474.53;5092398;28;20047;-79
2022/05/28 11:00:04;;;;;;;3.95;0.90;;;;;;;17.85;38.01;96487.34;5092778;28;20192;-78
2022/05/28 11:02:55;;;;;;;3.60;0.90;;;;;;;17.59;39.99;96480.50;5092713;28;20479;-78
2022/05/28 11:05:37;;;;;;;2.20;0.80;;;;;;;17.40;38.64;96486.75;5057781;28;20063;-78
2022/05/28 11:08:12;;;;;;;4.93;1.15;;;;;;;16.95;40.34;96468.78;5091956;28;20113;-78
2022/05/28 11:10:55;;;;;;;3.40;0.88;;;;;;;16.77;41.74;96472.28;5092619;28;20093;-80
2022/05/28 11:13:35;;;;;;;5.65;0.82;;;;;;;16.93;38.56;96471.13;5091311;28;20052;-79
2022/05/28 11:16:16;;;;;;;4.50;0.90;;;;;;;17.04;38.59;96465.06;5091635;28;20052;-78
2022/05/28 11:19:00;;;;;;;3.53;0.80;;;;;;;16.93;40.29;96464.81;5092315;28;20043;-78
2022/05/28 11:21:45;;;;;;;15.10;1.05;;;;;;;17.03;41.79;96463.50;5091906;28;20048;-80
2022/05/28 11:24:38;;;;;;;3.42;0.90;;;;;;;17.08;37.86;96458.50;5091602;28;20044;-80
2022/05/28 11:27:15;;;;;;;4.72;1.08;;;;;;;17.17;41.27;96464.63;5091436;28;20056;-79
2022/05/28 11:29:53;;;;;;;6.55;1.05;;;;;;;17.43;39.63;96460.44;5092224;28;20071;-79
2022/05/28 11:32:24;;;;;;;2.15;0.60;;;;;;;17.42;37.45;96454.16;5091564;28;20053;-79
2022/05/28 11:34:58;;;;;;;3.45;0.85;;;;;;;17.34;40.16;96446.13;5091778;28;20040;-79
2022/05/28 11:37:31;;;;;;;2.95;0.70;;;;;;;17.10;43.19;96441.63;5091353;28;20059;-78
2022/05/28 11:40:00;;;;;;;3.38;0.60;;;;;;;17.45;40.55;96442.44;5091996;28;20040;-79
2022/05/28 11:42:36;;;;;;;2.63;0.90;;;;;;;17.55;39.52;96437.53;5090851;28;20701;-80
2022/05/28 11:45:06;;;;;;;3.90;0.80;;;;;;;17.57;41.12;96441.50;5091307;28;20056;-77
2022/05/28 11:47:44;;;;;;;3.30;1.08;;;;;;;17.33;38.98;96434.31;5091052;28;20036;-80
2022/05/28 11:53:14;;;;;;;5.10;0.88;;;;;;;17.19;41.57;96418.28;5091220;28;20059;-79
2022/05/28 11:55:43;;;;;;;2.22;0.80;;;;;;;17.15;38.65;96422.09;5091454;28;20044;-79